KESC/ESC METAR and TAF weather

Enter ICAO airport designator
Station Type Date Time Source
KESC METAR 2019/10/15 03:56 UTC NOAA

KESC 150356Z AUTO 26007KT 10SM CLR 06/M01 A3001 RMK AO2 SLP169 T00561006


Station Type Date Time Source
KESC Decoded METAR 2019/10/15 03:56 UTC NOAA

Escanaba, MI, United States (KESC) 45-45N 087-02W 187M
Oct 14, 2019 - 11:56 PM EDT / 2019.10.15 0356 UTC
Wind: from the W (260 degrees) at 8 MPH (7 KT):0
Visibility: 10 mile(s):0
Sky conditions: clear
Temperature: 42.1 F (5.6 C)
Dew Point: 30.9 F (-0.6 C)
Relative Humidity: 64%
Pressure (altimeter): 30.01 in. Hg (1016 hPa)
ob: KESC 150356Z AUTO 26007KT 10SM CLR 06/M01 A3001 RMK AO2 SLP169 T00561006
cycle: 4

Station Type Date Time Source
KESC TAF UTC NOAA

Error!

Example: see airport list